createdAt,value
2019-02-02T00:00:10.206Z,2.97
2019-02-02T00:02:41.990Z,3.17
2019-02-02T00:05:12.358Z,3.00
2019-02-02T00:07:43.677Z,3.00
2019-02-02T00:10:13.956Z,2.93
2019-02-02T00:12:44.195Z,2.77
2019-02-02T00:15:14.467Z,2.47
2019-02-02T00:17:44.691Z,2.40
2019-02-02T00:20:15.261Z,2.43
2019-02-02T00:22:45.907Z,1.93
2019-02-02T00:25:16.412Z,2.57
2019-02-02T00:27:47.038Z,2.70
2019-02-02T00:30:17.690Z,2.23
2019-02-02T00:32:48.301Z,2.40
2019-02-02T00:35:18.950Z,2.30
2019-02-02T00:37:49.594Z,2.50
2019-02-02T00:40:20.490Z,2.80
2019-02-02T00:42:50.734Z,3.20
2019-02-02T00:45:21.441Z,4.20
2019-02-02T00:47:52.967Z,4.47
2019-02-02T00:50:23.190Z,4.33
2019-02-02T00:52:53.722Z,3.90
2019-02-02T00:55:23.932Z,4.70
2019-02-02T00:57:54.420Z,4.40
2019-02-02T01:00:24.743Z,3.00
2019-02-02T01:02:55.107Z,2.40
2019-02-02T01:05:25.841Z,2.93
2019-02-02T01:07:56.934Z,3.27
2019-02-02T01:10:31.248Z,2.53
2019-02-02T01:13:01.696Z,2.60
2019-02-02T01:15:31.985Z,2.90
2019-02-02T01:18:02.670Z,3.20
2019-02-02T01:20:33.434Z,2.93
2019-02-02T01:23:03.622Z,3.40
2019-02-02T01:25:33.871Z,3.97
2019-02-02T01:28:05.634Z,3.03
2019-02-02T01:30:36.000Z,3.43
2019-02-02T01:33:06.516Z,4.87
2019-02-02T01:35:36.909Z,4.90
2019-02-02T01:38:07.353Z,4.97
2019-02-02T01:40:38.283Z,6.00
2019-02-02T01:43:08.778Z,6.27
2019-02-02T01:45:39.310Z,6.93
2019-02-02T01:48:09.511Z,6.73
2019-02-02T01:50:40.806Z,6.90
2019-02-02T01:53:11.096Z,7.63
2019-02-02T01:55:41.630Z,8.00
2019-02-02T01:58:17.000Z,7.60
2019-02-02T02:00:44.737Z,7.93
2019-02-02T02:03:14.943Z,7.97
2019-02-02T02:05:45.593Z,8.30
2019-02-02T02:08:16.259Z,9.30
2019-02-02T02:10:46.516Z,9.10
2019-02-02T02:13:16.715Z,9.20
2019-02-02T02:15:47.417Z,8.70
2019-02-02T02:18:17.940Z,8.57
2019-02-02T02:20:48.660Z,8.50
2019-02-02T02:23:19.198Z,8.73
2019-02-02T02:25:49.365Z,8.23
2019-02-02T02:28:27.756Z,8.83
2019-02-02T02:30:52.491Z,9.07
2019-02-02T02:33:23.042Z,9.60
2019-02-02T02:35:53.311Z,9.07
2019-02-02T02:38:23.915Z,10.50
2019-02-02T02:40:54.448Z,10.53
2019-02-02T02:43:24.748Z,10.40
2019-02-02T02:45:55.028Z,10.80
2019-02-02T02:48:25.601Z,9.57
2019-02-02T02:50:55.872Z,9.23
2019-02-02T02:53:26.497Z,10.17
2019-02-02T02:55:56.723Z,9.47
2019-02-02T02:58:27.015Z,8.23
2019-02-02T03:00:58.649Z,8.47
2019-02-02T03:03:28.908Z,8.17
2019-02-02T03:05:59.430Z,8.10
2019-02-02T03:08:29.751Z,8.23
2019-02-02T03:11:00.284Z,9.00
2019-02-02T03:13:30.502Z,8.23
2019-02-02T03:16:01.041Z,9.17
2019-02-02T03:19:37.039Z,8.93
2019-02-02T03:22:07.635Z,8.57
2019-02-02T03:24:38.267Z,9.10
2019-02-02T03:27:08.899Z,9.27
2019-02-02T03:29:39.502Z,9.30
2019-02-02T03:32:10.047Z,9.53
2019-02-02T03:34:40.327Z,9.07
2019-02-02T03:37:10.821Z,9.10
2019-02-02T03:39:41.000Z,8.83
2019-02-02T03:42:11.248Z,8.67
2019-02-02T03:44:41.785Z,8.00
2019-02-02T03:47:12.094Z,9.00
2019-02-02T03:49:43.558Z,8.67
2019-02-02T03:52:14.087Z,9.73
2019-02-02T03:54:44.346Z,9.37
2019-02-02T03:57:15.251Z,8.83
2019-02-02T03:59:46.601Z,9.18
2019-02-02T04:02:18.150Z,8.93
2019-02-02T04:04:48.410Z,8.93
2019-02-02T04:07:18.609Z,9.40
2019-02-02T04:09:49.234Z,9.28
2019-02-02T04:12:19.860Z,8.27
2019-02-02T04:14:50.330Z,8.40
2019-02-02T04:17:21.230Z,8.77
2019-02-02T04:19:52.148Z,7.90
2019-02-02T04:22:23.384Z,7.90
2019-02-02T04:24:57.323Z,9.27
2019-02-02T04:27:27.964Z,9.90
2019-02-02T04:29:59.823Z,9.73
2019-02-02T04:32:30.434Z,9.80
2019-02-02T04:35:00.642Z,10.13
2019-02-02T04:37:31.300Z,9.80
2019-02-02T04:40:01.485Z,9.57
2019-02-02T04:42:32.365Z,10.23
2019-02-02T04:45:02.648Z,9.53
2019-02-02T04:47:32.980Z,9.90
2019-02-02T04:50:03.235Z,9.40
2019-02-02T04:52:33.513Z,9.20
2019-02-02T04:55:05.236Z,9.80
2019-02-02T04:57:35.497Z,9.73
2019-02-02T05:00:08.144Z,10.60
2019-02-02T05:02:38.750Z,11.03
2019-02-02T05:05:11.513Z,11.37
2019-02-02T05:07:42.161Z,10.77
2019-02-02T05:10:14.651Z,10.70
2019-02-02T05:12:44.914Z,10.70
2019-02-02T05:15:15.711Z,10.33
2019-02-02T05:17:46.737Z,10.50
2019-02-02T05:20:17.720Z,10.43
2019-02-02T05:22:48.053Z,10.85
2019-02-02T05:25:18.252Z,11.37
2019-02-02T05:27:48.754Z,11.70
2019-02-02T05:30:21.948Z,12.00
2019-02-02T05:32:52.261Z,12.07
2019-02-02T05:35:22.906Z,12.20
2019-02-02T05:37:53.258Z,12.10
2019-02-02T05:40:23.448Z,11.70
2019-02-02T05:42:53.860Z,10.57
2019-02-02T05:45:24.712Z,12.37
2019-02-02T05:47:55.030Z,12.17
2019-02-02T05:50:25.287Z,12.60
2019-02-02T05:52:55.892Z,12.73
2019-02-02T05:55:26.433Z,11.03
2019-02-02T05:57:57.051Z,10.07
2019-02-02T06:00:34.059Z,11.30
2019-02-02T06:03:04.563Z,11.53
2019-02-02T06:05:34.816Z,11.40
2019-02-02T06:08:05.514Z,11.00
2019-02-02T06:10:36.471Z,11.00
2019-02-02T06:13:07.060Z,11.37
2019-02-02T06:15:37.625Z,11.90
2019-02-02T06:18:08.156Z,11.47
2019-02-02T06:20:38.686Z,13.70
2019-02-02T06:23:09.008Z,11.73
2019-02-02T06:25:39.302Z,11.70
2019-02-02T06:28:09.538Z,11.43
2019-02-02T06:30:40.391Z,11.17
2019-02-02T06:33:10.681Z,11.57
2019-02-02T06:35:41.925Z,10.93
2019-02-02T06:38:12.497Z,11.07
2019-02-02T06:40:42.770Z,11.90
2019-02-02T06:43:12.999Z,11.23
2019-02-02T06:45:43.549Z,12.60
2019-02-02T06:48:14.212Z,11.57
2019-02-02T06:50:44.827Z,11.67
2019-02-02T06:53:15.464Z,11.33
2019-02-02T06:55:46.057Z,10.13
2019-02-02T06:58:16.281Z,11.33
2019-02-02T07:00:46.557Z,12.60
2019-02-02T07:03:16.833Z,15.60
2019-02-02T07:05:47.048Z,10.43
2019-02-02T07:08:17.374Z,12.73
2019-02-02T07:10:47.939Z,11.97
2019-02-02T07:13:18.197Z,14.37
2019-02-02T07:15:48.489Z,12.53
2019-02-02T07:18:18.772Z,13.23
2019-02-02T07:20:49.029Z,13.15
2019-02-02T07:23:19.221Z,12.10
2019-02-02T07:25:49.477Z,12.47
2019-02-02T07:28:19.736Z,11.83
2019-02-02T07:30:50.093Z,11.60
2019-02-02T07:33:20.294Z,12.07
2019-02-02T07:35:50.557Z,12.07
2019-02-02T07:38:20.837Z,12.57
2019-02-02T07:40:51.166Z,12.43
2019-02-02T07:43:21.760Z,13.40
2019-02-02T07:45:52.462Z,12.30
2019-02-02T07:48:23.528Z,12.97
2019-02-02T07:50:54.572Z,12.13
2019-02-02T07:53:25.067Z,12.83
2019-02-02T07:55:55.340Z,11.63
2019-02-02T07:58:25.919Z,13.17
2019-02-02T08:00:57.700Z,11.60
2019-02-02T08:03:29.820Z,13.17
2019-02-02T08:06:00.361Z,11.23
2019-02-02T08:08:30.684Z,12.27
2019-02-02T08:11:00.943Z,11.67
2019-02-02T08:13:32.424Z,12.13
2019-02-02T08:16:03.347Z,13.27
2019-02-02T08:18:33.954Z,12.10
2019-02-02T08:21:05.128Z,11.33
2019-02-02T08:23:35.913Z,12.37
2019-02-02T08:26:06.270Z,11.43
2019-02-02T08:28:37.029Z,12.13
2019-02-02T08:31:07.669Z,11.77
2019-02-02T08:33:38.276Z,12.70
2019-02-02T08:36:10.056Z,11.80
2019-02-02T08:38:40.677Z,12.10
2019-02-02T08:41:11.039Z,12.43
2019-02-02T08:43:41.637Z,11.93
2019-02-02T08:46:11.961Z,12.20
2019-02-02T08:48:42.230Z,13.37
2019-02-02T08:51:12.500Z,13.03
2019-02-02T08:53:42.756Z,13.43
2019-02-02T08:56:13.345Z,12.33
2019-02-02T08:58:44.126Z,12.60
2019-02-02T09:01:14.720Z,12.20
2019-02-02T09:03:45.963Z,11.53
2019-02-02T09:06:16.316Z,12.00
2019-02-02T09:08:46.926Z,11.90
2019-02-02T09:11:17.241Z,11.83
2019-02-02T09:13:47.976Z,12.43
2019-02-02T09:16:18.521Z,12.67
2019-02-02T09:18:51.217Z,12.90
2019-02-02T09:21:22.738Z,13.70
2019-02-02T09:23:53.020Z,13.67
2019-02-02T09:26:24.065Z,12.73
2019-02-02T09:28:54.622Z,13.23
2019-02-02T09:31:25.281Z,13.53
2019-02-02T09:33:56.426Z,12.40
2019-02-02T09:36:27.464Z,13.33
2019-02-02T09:38:58.101Z,12.43
2019-02-02T09:41:28.490Z,13.63
2019-02-02T09:43:58.800Z,12.47
2019-02-02T09:46:29.468Z,12.73
2019-02-02T09:49:00.641Z,12.93
2019-02-02T09:51:31.664Z,12.53
2019-02-02T09:54:02.283Z,12.50
2019-02-02T09:56:32.927Z,12.57
2019-02-02T09:59:03.697Z,11.63
2019-02-02T10:01:34.070Z,10.97
2019-02-02T10:04:04.605Z,12.03
2019-02-02T10:06:34.895Z,11.27
2019-02-02T10:09:08.075Z,11.13
2019-02-02T10:11:39.612Z,11.80
2019-02-02T10:14:09.916Z,11.97
2019-02-02T10:16:40.198Z,11.40
2019-02-02T10:19:10.753Z,11.60
2019-02-02T10:21:41.135Z,11.17
2019-02-02T10:24:11.565Z,12.37
2019-02-02T10:26:42.053Z,11.10
2019-02-02T10:29:12.388Z,11.33
2019-02-02T10:31:42.911Z,11.00
2019-02-02T10:34:14.162Z,10.37
2019-02-02T10:36:44.471Z,11.07
2019-02-02T10:39:15.048Z,10.80
2019-02-02T10:41:45.335Z,10.83
2019-02-02T10:44:15.994Z,10.70
2019-02-02T10:46:46.745Z,10.17
2019-02-02T10:49:17.153Z,9.10
2019-02-02T10:51:47.425Z,9.80
2019-02-02T10:54:17.878Z,9.30
2019-02-02T10:56:48.292Z,8.43
2019-02-02T10:59:19.199Z,8.00
2019-02-02T11:01:51.213Z,10.17
2019-02-02T11:04:22.056Z,8.57
2019-02-02T11:06:53.026Z,9.10
2019-02-02T11:09:24.751Z,8.50
2019-02-02T11:11:55.369Z,8.53
2019-02-02T11:14:26.548Z,7.27
2019-02-02T11:16:57.916Z,8.17
2019-02-02T11:19:29.444Z,8.40
2019-02-02T11:22:00.560Z,7.43
2019-02-02T11:24:32.690Z,7.00
2019-02-02T11:27:03.287Z,5.97
2019-02-02T11:29:33.781Z,6.03
2019-02-02T11:32:04.708Z,4.07
2019-02-02T11:34:35.478Z,4.07
2019-02-02T11:37:06.303Z,4.42
2019-02-02T11:39:36.575Z,2.98
2019-02-02T11:42:07.403Z,1.90
2019-02-02T11:44:38.087Z,2.00
2019-02-02T11:47:08.660Z,2.20
2019-02-02T11:49:39.198Z,2.80
2019-02-02T11:52:09.449Z,2.30
2019-02-02T11:54:40.026Z,3.85
2019-02-02T11:57:10.569Z,3.62
2019-02-02T11:59:40.872Z,3.20
2019-02-02T12:02:14.479Z,3.40
2019-02-02T12:04:44.866Z,3.30
2019-02-02T12:07:15.566Z,2.95
2019-02-02T12:09:46.197Z,3.02
2019-02-02T12:12:17.189Z,2.83
2019-02-02T12:14:48.234Z,2.70
2019-02-02T12:17:18.988Z,3.10
2019-02-02T12:19:49.806Z,2.85
2019-02-02T12:22:20.953Z,3.10
2019-02-02T12:24:51.482Z,2.58
2019-02-02T12:27:22.010Z,3.07
2019-02-02T12:29:52.878Z,3.02
2019-02-02T12:32:26.820Z,2.63
2019-02-02T12:34:55.741Z,4.08
2019-02-02T12:37:26.374Z,2.87
2019-02-02T12:39:56.838Z,2.62
2019-02-02T12:42:27.808Z,3.17
2019-02-02T12:44:58.684Z,2.95
2019-02-02T12:47:29.187Z,2.17
2019-02-02T12:49:59.984Z,2.60
2019-02-02T12:52:30.334Z,2.62
2019-02-02T12:55:02.757Z,2.67
2019-02-02T12:57:33.271Z,2.77
2019-02-02T13:00:04.027Z,2.52
2019-02-02T13:02:38.259Z,2.37
2019-02-02T13:05:08.331Z,2.15
2019-02-02T13:07:38.786Z,2.20
2019-02-02T13:10:12.442Z,2.55
2019-02-02T13:12:43.864Z,2.17
2019-02-02T13:15:16.228Z,1.75
2019-02-02T13:17:47.749Z,1.93
2019-02-02T13:20:19.073Z,2.53
2019-02-02T13:22:51.236Z,2.60
2019-02-02T13:25:22.274Z,2.50
2019-02-02T13:27:53.831Z,2.40
2019-02-02T13:30:32.937Z,2.60
2019-02-02T13:33:04.245Z,2.07
2019-02-02T13:35:36.691Z,2.00
2019-02-02T13:38:07.984Z,2.10
2019-02-02T13:40:38.591Z,2.20
2019-02-02T13:43:08.851Z,1.80
2019-02-02T13:45:39.883Z,1.77
2019-02-02T13:48:11.619Z,1.50
2019-02-02T13:50:42.691Z,4.03
2019-02-02T13:53:13.403Z,1.87
2019-02-02T13:55:44.178Z,2.00
2019-02-02T13:58:14.402Z,1.70
2019-02-02T14:00:44.993Z,1.70
2019-02-02T14:03:15.299Z,1.80
2019-02-02T14:05:46.187Z,1.27
2019-02-02T14:08:17.088Z,1.30
2019-02-02T14:10:47.723Z,1.47
2019-02-02T14:13:18.274Z,1.30
2019-02-02T14:15:49.475Z,1.43
2019-02-02T14:18:20.120Z,1.30
2019-02-02T14:20:50.713Z,1.70
2019-02-02T14:23:21.284Z,1.47
2019-02-02T14:25:52.021Z,1.70
2019-02-02T14:28:28.443Z,1.20
2019-02-02T14:30:55.431Z,2.03
2019-02-02T14:33:26.216Z,1.47
2019-02-02T14:35:56.797Z,1.47
2019-02-02T14:38:27.020Z,1.80
2019-02-02T14:40:57.750Z,1.47
2019-02-02T14:43:28.328Z,1.57
2019-02-02T14:45:59.850Z,1.13
2019-02-02T14:48:30.790Z,1.67
2019-02-02T14:51:01.050Z,1.20
2019-02-02T14:53:31.474Z,1.40
2019-02-02T14:56:01.729Z,1.40
2019-02-02T14:58:32.814Z,1.60
2019-02-02T15:01:03.086Z,1.60
2019-02-02T15:03:33.773Z,1.70
2019-02-02T15:06:04.037Z,1.97
2019-02-02T15:08:34.710Z,1.70
2019-02-02T15:11:06.432Z,1.90
2019-02-02T15:13:37.420Z,2.20
2019-02-02T15:16:07.654Z,3.07
2019-02-02T15:18:38.360Z,2.60
2019-02-02T15:21:08.889Z,2.27
2019-02-02T15:23:39.137Z,2.13
2019-02-02T15:26:09.760Z,2.60
2019-02-02T15:28:40.693Z,2.50
2019-02-02T15:31:11.581Z,3.33
2019-02-02T15:33:42.609Z,2.60
2019-02-02T15:36:13.557Z,2.50
2019-02-02T15:38:44.445Z,3.50
2019-02-02T15:41:14.708Z,2.70
2019-02-02T15:43:48.062Z,2.97
2019-02-02T15:46:18.704Z,3.10
2019-02-02T15:48:49.334Z,2.77
2019-02-02T15:51:19.777Z,2.53
2019-02-02T15:53:50.492Z,2.80
2019-02-02T15:56:21.634Z,2.07
2019-02-02T15:58:52.070Z,2.40
2019-02-02T16:01:22.415Z,2.60
2019-02-02T16:03:53.092Z,3.57
2019-02-02T16:06:24.302Z,2.87
2019-02-02T16:08:55.002Z,4.37
2019-02-02T16:11:25.628Z,3.00
2019-02-02T16:13:56.229Z,3.03
2019-02-02T16:16:28.163Z,3.10
2019-02-02T16:18:58.625Z,2.80
2019-02-02T16:21:29.077Z,2.57
2019-02-02T16:24:00.177Z,2.80
2019-02-02T16:26:31.165Z,2.65
2019-02-02T16:29:01.790Z,2.77
2019-02-02T16:31:32.491Z,4.07
2019-02-02T16:34:02.881Z,4.80
2019-02-02T16:36:33.784Z,4.37
2019-02-02T16:39:05.685Z,5.80
2019-02-02T16:41:36.269Z,4.83
2019-02-02T16:44:06.677Z,4.60
2019-02-02T16:46:37.663Z,4.10
2019-02-02T16:49:08.387Z,5.40
2019-02-02T16:51:38.695Z,4.50
2019-02-02T16:54:09.308Z,3.93
2019-02-02T16:56:39.899Z,3.97
2019-02-02T16:59:11.085Z,4.57
2019-02-02T17:01:42.370Z,4.00
2019-02-02T17:04:16.013Z,4.05
2019-02-02T17:06:45.880Z,4.83
2019-02-02T17:09:16.268Z,5.00
2019-02-02T17:11:47.247Z,7.47
2019-02-02T17:14:18.032Z,11.67
2019-02-02T17:16:48.365Z,29.30
2019-02-02T17:19:19.416Z,6.90
2019-02-02T17:21:50.085Z,8.77
2019-02-02T17:24:22.126Z,4.53
2019-02-02T17:26:52.459Z,4.43
2019-02-02T17:29:23.120Z,4.13
2019-02-02T17:31:53.500Z,4.40
2019-02-02T17:34:27.252Z,3.97
2019-02-02T17:36:56.874Z,4.20
2019-02-02T17:39:27.664Z,3.40
2019-02-02T17:41:58.081Z,3.90
2019-02-02T17:44:28.442Z,4.20
2019-02-02T17:46:58.823Z,3.57
2019-02-02T17:49:29.395Z,4.10
2019-02-02T17:51:59.914Z,4.00
2019-02-02T17:54:30.343Z,3.93
2019-02-02T17:57:00.974Z,4.83
2019-02-02T17:59:31.668Z,4.00
2019-02-02T18:02:02.499Z,3.80
2019-02-02T18:04:39.505Z,3.50
2019-02-02T18:07:05.893Z,4.40
2019-02-02T18:09:36.506Z,3.73
2019-02-02T18:12:06.920Z,3.90
2019-02-02T18:14:37.420Z,4.20
2019-02-02T18:17:08.164Z,2.93
2019-02-02T18:19:39.300Z,4.87
2019-02-02T18:22:10.975Z,3.05
2019-02-02T18:24:43.341Z,4.97
2019-02-02T18:27:14.196Z,3.60
2019-02-02T18:29:46.273Z,5.33
2019-02-02T18:32:17.695Z,8.57
2019-02-02T18:34:51.326Z,3.97
2019-02-02T18:37:21.329Z,4.07
2019-02-02T18:39:54.214Z,4.63
2019-02-02T18:42:26.419Z,4.47
2019-02-02T18:44:57.583Z,4.87
2019-02-02T18:47:28.593Z,5.90
2019-02-02T18:49:59.509Z,5.83
2019-02-02T18:52:30.155Z,5.50
2019-02-02T18:55:00.944Z,3.83
2019-02-02T18:57:32.250Z,3.90
2019-02-02T19:00:06.177Z,3.70
2019-02-02T19:02:39.540Z,4.67
2019-02-02T19:05:11.789Z,4.28
2019-02-02T19:07:43.709Z,4.40
2019-02-02T19:10:18.695Z,5.23
2019-02-02T19:12:49.875Z,5.20
2019-02-02T19:15:22.369Z,3.80
2019-02-02T19:17:55.781Z,4.10
2019-02-02T19:20:29.567Z,4.77
2019-02-02T19:23:02.564Z,4.37
2019-02-02T19:25:35.584Z,4.20
2019-02-02T19:28:09.321Z,5.33
2019-02-02T19:30:43.690Z,5.22
2019-02-02T19:33:17.492Z,5.40
2019-02-02T19:35:50.627Z,5.10
2019-02-02T19:38:24.911Z,5.83
2019-02-02T19:40:58.820Z,5.50
2019-02-02T19:43:31.842Z,5.67
2019-02-02T19:46:06.264Z,6.43
2019-02-02T19:48:40.768Z,6.47
2019-02-02T19:51:14.908Z,5.97
2019-02-02T19:53:48.544Z,6.60
2019-02-02T19:56:21.894Z,6.37
2019-02-02T19:58:54.282Z,5.77
2019-02-02T20:01:27.798Z,6.47
2019-02-02T20:04:02.002Z,5.83
2019-02-02T20:06:35.879Z,5.37
2019-02-02T20:09:10.322Z,6.10
2019-02-02T20:11:45.474Z,6.07
2019-02-02T20:14:19.524Z,6.07
2019-02-02T20:16:53.382Z,4.80
2019-02-02T20:19:27.114Z,4.93
2019-02-02T20:22:02.891Z,4.33
2019-02-02T20:24:36.994Z,4.40
2019-02-02T20:27:12.903Z,3.87
2019-02-02T20:29:47.667Z,3.50
2019-02-02T20:32:21.811Z,3.17
2019-02-02T20:34:56.621Z,2.67
2019-02-02T20:37:30.326Z,2.67
2019-02-02T20:40:05.359Z,2.53
2019-02-02T20:42:40.027Z,2.20
2019-02-02T20:45:16.045Z,2.70
2019-02-02T20:47:49.320Z,2.23
2019-02-02T20:50:23.102Z,2.43
2019-02-02T20:52:56.750Z,2.80
2019-02-02T20:55:32.182Z,2.50
2019-02-02T20:58:06.424Z,2.47
2019-02-02T21:00:40.820Z,2.67
2019-02-02T21:03:13.641Z,2.37
2019-02-02T21:05:52.289Z,2.60
2019-02-02T21:08:21.714Z,2.90
2019-02-02T21:10:56.202Z,3.07
2019-02-02T21:13:29.346Z,3.97
2019-02-02T21:16:02.253Z,2.80
2019-02-02T21:18:35.467Z,3.00
2019-02-02T21:21:08.951Z,3.70
2019-02-02T21:23:41.968Z,5.00
2019-02-02T21:26:14.919Z,6.30
2019-02-02T21:28:50.488Z,8.73
2019-02-02T21:31:21.584Z,9.73
2019-02-02T21:33:53.324Z,8.90
2019-02-02T21:36:26.391Z,9.23
2019-02-02T21:38:57.745Z,9.67
2019-02-02T21:41:30.012Z,8.50
2019-02-02T21:44:02.130Z,6.63
2019-02-02T21:46:33.494Z,7.80
2019-02-02T21:49:05.573Z,7.20
2019-02-02T21:51:36.976Z,5.40
2019-02-02T21:54:09.866Z,5.27
2019-02-02T21:56:41.239Z,5.03
2019-02-02T21:59:13.073Z,4.97
2019-02-02T22:01:44.262Z,4.97
2019-02-02T22:04:16.346Z,5.00
2019-02-02T22:06:47.613Z,4.97
2019-02-02T22:09:18.515Z,4.77
2019-02-02T22:11:50.024Z,5.00
2019-02-02T22:14:22.443Z,5.00
2019-02-02T22:16:53.892Z,4.97
2019-02-02T22:19:24.709Z,5.23
2019-02-02T22:21:55.976Z,5.37
2019-02-02T22:24:26.634Z,5.43
2019-02-02T22:26:57.699Z,5.50
2019-02-02T22:29:27.977Z,5.60
2019-02-02T22:31:58.485Z,4.83
2019-02-02T22:34:29.163Z,5.77
2019-02-02T22:36:59.439Z,5.67
2019-02-02T22:39:30.183Z,5.80
2019-02-02T22:42:01.031Z,5.43
2019-02-02T22:44:31.662Z,5.67
2019-02-02T22:47:02.145Z,5.60
2019-02-02T22:49:32.932Z,5.27
2019-02-02T22:52:03.225Z,5.30
2019-02-02T22:54:33.539Z,6.03
2019-02-02T22:57:04.528Z,6.37
2019-02-02T22:59:35.458Z,6.13
2019-02-02T23:02:13.203Z,5.80
2019-02-02T23:05:04.162Z,6.53
2019-02-02T23:08:15.879Z,6.50
2019-02-02T23:11:23.145Z,6.90
2019-02-02T23:14:52.811Z,7.33
2019-02-02T23:17:23.612Z,6.90
2019-02-02T23:19:53.971Z,7.20
2019-02-02T23:22:24.862Z,7.60
2019-02-02T23:24:55.390Z,7.10
2019-02-02T23:27:25.603Z,6.90
2019-02-02T23:29:55.871Z,6.90
2019-02-02T23:32:27.058Z,7.23
2019-02-02T23:34:57.381Z,7.20
2019-02-02T23:37:28.247Z,7.87
2019-02-02T23:39:58.742Z,8.03
2019-02-02T23:42:28.981Z,8.03
2019-02-02T23:44:59.280Z,7.63
2019-02-02T23:47:29.567Z,8.50
2019-02-02T23:50:00.337Z,7.93
2019-02-02T23:52:30.792Z,7.37
2019-02-02T23:55:01.062Z,7.50
2019-02-02T23:57:31.371Z,7.67
